Surface/Precipitation History
12/20/2014 21:58  to  12/21/2014 21:58
Change End Date:
Date/Time
(MST)
Sf
Temp Chem Water Layer Surface Precipitation
Sf Sub Frz Factor Pct Depth IcePct Cond Salin Type Intens Accum Rate
12/21/2014 21:55 Ice Warning 29.1F 31F 32F 45 0% - 99% 0 mhos 37 Yes - - -
12/21/2014 21:53 Ice Warning 29.1F 31F 32F 45 0% - 99% 0 mhos 37 Yes - - -
12/21/2014 21:43 Ice Warning 29.1F 31F 32F 40 0% - 99% 0 mhos 37 Yes - - -
12/21/2014 21:33 Ice Warning 28.9F 31F 32F 40 0% - 99% 0 mhos 38 Yes - - -
12/21/2014 21:23 Ice Warning 29.1F 31F 32F 45 0% - 99% 0 mhos 38 Yes - - -
12/21/2014 21:13 Ice Warning 29.1F 31F 32F 45 0% - 99% 0 mhos 38 Yes - - -
12/21/2014 21:03 Ice Warning 29.1F 31F 32F 45 0% - 99% 0 mhos 38 Yes - - -
12/21/2014 20:53 Ice Warning 29.1F 31F 32F 45 0% - 99% 0 mhos 38 Yes - - -
12/21/2014 20:51 Ice Warning 29.1F 31F 32F 45 0% - 99% 0 mhos 38 Yes - - -
12/21/2014 20:43 Ice Warning 29.1F 31F 32F 40 0% - 99% 0 mhos 38 Yes - - -
12/21/2014 20:33 Ice Warning 29.1F 31F 32F 50 0% - 99% 0 mhos 38 Yes - - -
12/21/2014 20:23 Ice Warning 29.1F 31F 32F 45 0% - 99% 0 mhos 38 Yes - - -
12/21/2014 20:21 Ice Warning 29.1F 31F 32F 45 0% - 99% 0 mhos 38 Yes - - -
12/21/2014 20:13 Ice Warning 29.1F 31F 32F 40 0% - 99% 0 mhos 38 Yes - - -
12/21/2014 20:03 Ice Warning 29.1F 31F 32F 40 0% - 99% 0 mhos 38 Yes - - -
Date/Time
(MST)
Sf
Temp Chem Water Layer Surface Precipitation
Sf Sub Frz Factor Pct Depth IcePct Cond Salin Type Intens Accum Rate
12/21/2014 19:53 Ice Warning 29.1F 31F 32F 40 0% - 99% 0 mhos 38 Yes - - -
12/21/2014 19:53 Ice Warning 29.1F 31F 32F 40 0% - 99% 0 mhos 38 Yes - - -
12/21/2014 19:43 Ice Warning 29.1F 31F 32F 45 0% - 99% 0 mhos 38 Yes - - -
12/21/2014 19:33 Ice Warning 29.1F 31F 32F 40 0% - 99% 0 mhos 38 Yes - - -
12/21/2014 19:23 Ice Warning 28.9F 31F 32F 45 0% - 99% 0 mhos 38 Yes - - -
12/21/2014 19:23 Ice Warning 28.9F 31F 32F 45 0% - 99% 0 mhos 38 Yes - - -
12/21/2014 19:13 Ice Warning 28.4F 31F 32F 45 0% - 99% 0 mhos 38 Yes - - -
12/21/2014 19:03 Ice Warning 28.6F 31F 32F 40 0% - 99% 0 mhos 38 Yes - - -
12/21/2014 18:57 Ice Warning 28.8F 31F 32F 45 0% - 99% 0 mhos 38 Yes - - -
12/21/2014 18:53 Ice Warning 28.8F 31F 32F 45 0% - 99% 0 mhos 38 Yes - - -
12/21/2014 18:43 Ice Warning 28.8F 31F 32F 45 0% - 99% 0 mhos 38 Yes - - -
12/21/2014 18:33 Ice Warning 28.6F 31F 32F 45 0% - 99% 0 mhos 38 Yes - - -
12/21/2014 18:23 Ice Warning 28.6F 31F 32F 45 0% - 99% 0 mhos 38 Yes - - -
12/21/2014 18:23 Ice Warning 28.6F 31F 32F 45 0% - 99% 0 mhos 38 Yes - - -
12/21/2014 18:13 Ice Warning 28.6F 31F 32F 45 0% - 99% 0 mhos 39 Yes - - -
Date/Time
(MST)
Sf
Temp Chem Water Layer Surface Precipitation
Sf Sub Frz Factor Pct Depth IcePct Cond Salin Type Intens Accum Rate
12/21/2014 18:03 Ice Warning 28.6F 31F 32F 45 0% - 99% 0 mhos 39 Yes - - -
12/21/2014 17:53 Ice Warning 28.8F 31F 32F 45 0% - 99% 0 mhos 39 Yes - - -
12/21/2014 17:53 Ice Warning 28.8F 31F 32F 45 0% - 99% 0 mhos 39 Yes - - -
12/21/2014 17:43 Ice Warning 28.6F 31F 32F 45 0% - 99% 0 mhos 40 Yes - - -
12/21/2014 17:33 Ice Warning 28.8F 31F 32F 55 0% - 99% 0 mhos 40 Yes - - -
12/21/2014 17:23 Ice Warning 28.9F 31F 32F 55 0% - 99% 0 mhos 40 Yes - - -
12/21/2014 17:22 Ice Warning 28.9F 31F 32F 50 0% - 99% 0 mhos 40 Yes - - -
12/21/2014 17:13 Ice Warning 29.1F 31F 32F 60 0% - 99% 0 mhos 40 Yes - - -
12/21/2014 17:03 Ice Warning 29.3F 31F 32F 60 0% - 98% 0 mhos 42 Yes - - -
12/21/2014 17:03 Ice Warning 29.3F 31F 32F 60 0% - 98% 0 mhos 42 Yes - - -
12/21/2014 16:53 Ice Warning 29.8F 31F 32F 55 0% - 98% 0 mhos 51 Yes - - -
12/21/2014 16:51 Ice Warning 30.0F 31F 32F 60 0% - 97% 0 mhos 53 Yes - - -
12/21/2014 16:42 Ice Warning 30.2F 31F 32F 60 0% - 96% 1 mhos 64 Yes - - -
12/21/2014 16:32 Ice Warning 30.7F 31F 32F 70 0% - 94% 1 mhos 78 Yes - - -
12/21/2014 16:32 Ice Warning 30.7F 31F 32F 70 0% - 94% 1 mhos 78 Yes - - -
Date/Time
(MST)
Sf
Temp Chem Water Layer Surface Precipitation
Sf Sub Frz Factor Pct Depth IcePct Cond Salin Type Intens Accum Rate
12/21/2014 16:22 Chemically Wet 31.5F 31F 32F 80 0% - 82% 1 mhos 106 Yes - - -
12/21/2014 16:21 Chemically Wet 31.5F 31F 32F 70 0% - 82% 1 mhos 110 Yes - - -
12/21/2014 16:12 Chemically Wet 31.6F 31F 32F 95 1% - 51% 1 mhos 144 Yes - - -
12/21/2014 16:02 Chemically Wet 31.8F 31F 32F 95 1% 0.00 in 0% 2 mhos 182 Yes - - -
12/21/2014 16:02 Chemically Wet 31.8F 31F 32F 95 1% 0.00 in 0% 2 mhos 182 Yes - - -
12/21/2014 15:52 Wet 32.5F 31F 32F 95 1% 0.00 in 0% 3 mhos 331 Yes - - -
12/21/2014 15:51 Wet 32.7F 31F 32F 95 1% 0.00 in 0% 3 mhos 330 Yes - - -
12/21/2014 15:42 Wet 33.6F 31F 32F 75 0% 0.00 in 0% 1 mhos 122 Yes - - -
12/21/2014 15:32 Wet 33.3F 31F 32F 95 1% 0.00 in 0% 2 mhos 192 Yes - - -
12/21/2014 15:31 Wet 33.3F 31F 32F 95 1% 0.00 in 0% 2 mhos 192 Yes - - -
12/21/2014 15:22 Wet 32.5F 31F 32F 95 1% 0.00 in 0% 3 mhos 347 Yes - - -
12/21/2014 15:21 Wet 32.5F 31F 32F 95 1% 0.00 in 0% 3 mhos 348 Yes - - -
12/21/2014 15:12 Wet 32.5F 31F 32F 85 1% 0.00 in 0% 3 mhos 363 Yes - - -
12/21/2014 15:02 Wet 32.5F 31F 32F 95 1% 0.10 in 0% 3 mhos 362 Yes - - -
12/21/2014 15:01 Wet 32.5F 31F 32F 95 1% 0.10 in 0% 3 mhos 362 Yes - - -
Date/Time
(MST)
Sf
Temp Chem Water Layer Surface Precipitation
Sf Sub Frz Factor Pct Depth IcePct Cond Salin Type Intens Accum Rate
12/21/2014 14:52 Wet 32.4F 31F 32F 95 2% 0.00 in 0% 4 mhos 407 Yes - - -
12/21/2014 14:51 Wet 32.4F 31F 32F 95 2% 0.00 in 0% 4 mhos 402 Yes - - -
12/21/2014 14:42 Wet 32.5F 31F 31F 95 2% 0.00 in 0% 4 mhos 433 Yes - - -
12/21/2014 14:32 Wet 32.7F 31F 31F 95 2% 0.00 in 0% 4 mhos 439 Yes - - -
12/21/2014 14:31 Wet 32.7F 31F 31F 95 2% 0.00 in 0% 4 mhos 439 Yes - - -
12/21/2014 14:22 Wet 33.1F 31F 31F 95 2% 0.00 in 0% 4 mhos 441 Yes - - -
12/21/2014 14:21 Wet 33.1F 31F 31F 95 2% 0.00 in 0% 4 mhos 454 Yes - - -
12/21/2014 14:12 Wet 33.4F 31F 31F 95 2% 0.00 in 0% 4 mhos 448 Yes - - -
12/21/2014 14:06 Wet 33.6F 31F 31F 95 2% 0.10 in 0% 4 mhos 450 Yes - - -
12/21/2014 14:02 Wet 33.4F 31F 31F 95 2% 0.00 in 0% 4 mhos 456 Yes - - -
12/21/2014 13:52 Wet 33.3F 31F 31F 95 2% 0.00 in 0% 4 mhos 456 Yes - - -
12/21/2014 13:51 Wet 33.4F 31F 31F 95 2% 0.00 in 0% 4 mhos 455 Yes - - -
12/21/2014 13:42 Wet 33.3F 31F 31F 95 2% 0.00 in 0% 4 mhos 455 Yes - - -
12/21/2014 13:32 Wet 33.1F 31F 31F 95 2% 0.10 in 0% 4 mhos 427 Yes - - -
12/21/2014 13:31 Wet 33.1F 31F 31F 95 2% 0.10 in 0% 4 mhos 427 Yes - - -
Date/Time
(MST)
Sf
Temp Chem Water Layer Surface Precipitation
Sf Sub Frz Factor Pct Depth IcePct Cond Salin Type Intens Accum Rate
12/21/2014 13:22 Wet 33.4F 31F 32F 95 1% 0.10 in 0% 4 mhos 386 Yes - - -
12/21/2014 13:21 Wet 33.4F 31F 32F 95 2% 0.00 in 0% 4 mhos 406 Yes - - -
12/21/2014 13:12 Wet 33.1F 31F 32F 95 2% 0.10 in 0% 4 mhos 409 Yes - - -
12/21/2014 13:02 Wet 33.6F 31F 31F 95 2% 0.10 in 0% 4 mhos 430 Yes - - -
12/21/2014 13:02 Wet 33.6F 31F 31F 95 2% 0.10 in 0% 4 mhos 430 Yes - - -
12/21/2014 12:52 Wet 34.3F 31F 31F 95 2% 0.10 in 0% 5 mhos 499 Yes - - -
12/21/2014 12:51 Wet 34.5F 31F 31F 95 2% 0.10 in 0% 5 mhos 499 Yes - - -
12/21/2014 12:42 Wet 34.7F 31F 31F 95 2% 0.20 in 0% 5 mhos 494 None None - -
12/21/2014 12:32 Wet 33.4F 31F 31F 95 2% 0.30 in 0% 5 mhos 495 Yes - - -
12/21/2014 12:22 Chemically Wet 31.6F 31F 31F 95 2% 1.30 in 0% 5 mhos 500 None None - -
12/21/2014 12:21 Chemically Wet 31.6F 31F 31F 95 2% 0.20 in 0% 5 mhos 492 None None - -
12/21/2014 12:12 Chemically Wet 31.5F 31F 32F 95 1% - 14% 4 mhos 381 Yes - - -
12/21/2014 12:02 Chemically Wet 31.3F 31F 32F 95 1% - 56% 3 mhos 330 Yes - - -
12/21/2014 12:01 Chemically Wet 31.3F 31F 32F 95 1% - 56% 3 mhos 330 Yes - - -
12/21/2014 11:52 Ice Warning 30.4F 31F 32F 95 1% - 90% 1 mhos 149 Yes - - -
Date/Time
(MST)
Sf
Temp Chem Water Layer Surface Precipitation
Sf Sub Frz Factor Pct Depth IcePct Cond Salin Type Intens Accum Rate
12/21/2014 11:51 Ice Warning 30.4F 31F 32F 95 1% - 90% 1 mhos 149 Yes - - -
12/21/2014 11:42 Ice Warning 30.2F 31F 32F 95 1% - 92% 1 mhos 141 Yes - - -
12/21/2014 11:31 Ice Warning 30.2F 31F 32F 95 0% - 94% 1 mhos 102 Yes - - -
12/21/2014 11:31 Ice Warning 30.2F 31F 32F 95 0% - 94% 1 mhos 102 Yes - - -
12/21/2014 11:21 Ice Warning 30.2F 31F 32F 95 0% - 96% 1 mhos 71 Yes - - -
12/21/2014 11:21 Ice Warning 30.2F 31F 32F 95 0% - 96% 1 mhos 71 Yes - - -
12/21/2014 11:11 Ice Warning 30.0F 31F 32F 95 0% - 97% 1 mhos 60 Yes - - -
12/21/2014 11:02 Ice Warning 29.7F 31F 32F 95 0% - 98% 0 mhos 54 Yes - - -
12/21/2014 11:01 Ice Warning 29.7F 31F 32F 95 0% - 98% 0 mhos 53 Yes - - -
12/21/2014 10:51 Ice Warning 29.3F 31F 32F 95 0% - 98% 0 mhos 50 Yes - - -
12/21/2014 10:51 Ice Warning 29.3F 31F 32F 95 0% - 98% 0 mhos 50 Yes - - -
12/21/2014 10:41 Ice Warning 29.1F 31F 32F 95 0% - 98% 0 mhos 49 Yes - - -
12/21/2014 10:32 Ice Warning 29.1F 31F 32F 95 0% - 98% 0 mhos 48 Yes - - -
12/21/2014 10:31 Ice Warning 29.1F 31F 32F 95 0% - 98% 0 mhos 48 Yes - - -
12/21/2014 10:21 Ice Warning 29.1F 31F 32F 95 0% - 98% 0 mhos 46 Yes - - -
Date/Time
(MST)
Sf
Temp Chem Water Layer Surface Precipitation
Sf Sub Frz Factor Pct Depth IcePct Cond Salin Type Intens Accum Rate
12/21/2014 10:21 Ice Warning 29.1F 31F 32F 95 0% - 98% 0 mhos 46 Yes - - -
12/21/2014 10:11 Ice Warning 28.9F 31F 32F 95 0% - 98% 1 mhos 58 Yes - - -
12/21/2014 10:02 Ice Warning 28.9F 31F 32F 95 0% - 98% 1 mhos 59 Yes - - -
12/21/2014 10:01 Ice Warning 28.9F 31F 32F 95 0% - 98% 1 mhos 59 Yes - - -
12/21/2014 09:51 Ice Warning 28.8F 31F 32F 95 0% - 98% 1 mhos 57 Yes - - -
12/21/2014 09:51 Ice Warning 28.8F 31F 32F 95 0% - 98% 1 mhos 57 Yes - - -
12/21/2014 09:41 Ice Warning 28.4F 31F 32F 95 0% - 98% 1 mhos 56 Yes - - -
12/21/2014 09:31 Ice Warning 28.4F 31F 32F 95 0% - 98% 1 mhos 57 Yes - - -
12/21/2014 09:31 Ice Warning 28.4F 31F 32F 95 0% - 98% 1 mhos 57 Yes - - -
12/21/2014 09:21 Ice Warning 28.8F 31F 32F 95 0% - 98% 1 mhos 58 Yes - - -
12/21/2014 09:21 Ice Warning 28.8F 31F 32F 95 0% - 98% 1 mhos 58 Yes - - -
12/21/2014 09:11 Ice Warning 29.1F 31F 32F 95 0% - 98% 1 mhos 58 Yes - - -
12/21/2014 09:04 Ice Warning 29.1F 31F 32F 95 1% - 93% 2 mhos 209 Yes - - -
12/21/2014 09:01 Ice Warning 29.1F 31F 32F 95 1% - 93% 2 mhos 213 Yes - - -
12/21/2014 08:51 Ice Warning 29.1F 31F 32F 95 1% - 88% 3 mhos 353 Yes - - -
Date/Time
(MST)
Sf
Temp Chem Water Layer Surface Precipitation
Sf Sub Frz Factor Pct Depth IcePct Cond Salin Type Intens Accum Rate
12/21/2014 08:51 Ice Warning 29.1F 31F 32F 95 1% - 88% 3 mhos 353 Yes - - -
12/21/2014 08:41 Ice Warning 29.1F 31F 32F 95 1% - 88% 3 mhos 352 Yes - - -
12/21/2014 08:33 Ice Warning 29.1F 31F 32F 95 1% - 88% 3 mhos 353 Yes - - -
12/21/2014 08:31 Ice Warning 29.1F 31F 32F 95 1% - 88% 3 mhos 353 Yes - - -
12/21/2014 08:21 Ice Warning 29.1F 31F 32F 95 1% - 88% 3 mhos 349 Yes - - -
12/21/2014 08:21 Ice Warning 29.1F 31F 32F 95 1% - 88% 3 mhos 349 Yes - - -
12/21/2014 08:11 Ice Warning 29.1F 31F 32F 95 1% - 88% 3 mhos 342 Yes - - -
12/21/2014 08:01 Ice Warning 29.1F 31F 32F 95 1% - 93% 2 mhos 210 Yes - - -
12/21/2014 07:51 Ice Warning 29.1F 31F 32F 95 1% - 93% 2 mhos 201 Yes - - -
12/21/2014 07:51 Ice Warning 29.1F 31F 32F 95 1% - 93% 2 mhos 201 Yes - - -
12/21/2014 07:40 Ice Warning 29.1F 31F 32F 95 1% - 93% 2 mhos 201 Yes - - -
12/21/2014 07:30 Ice Warning 28.9F 31F 32F 95 1% - 94% 2 mhos 198 Yes - - -
12/21/2014 07:21 Ice Warning 28.9F 31F 32F 95 1% - 94% 2 mhos 195 Yes - - -
12/21/2014 07:20 Ice Warning 28.9F 31F 32F 95 1% - 94% 2 mhos 195 Yes - - -
12/21/2014 07:10 Ice Warning 28.9F 31F 32F 95 1% - 94% 2 mhos 190 Yes - - -
Date/Time
(MST)
Sf
Temp Chem Water Layer Surface Precipitation
Sf Sub Frz Factor Pct Depth IcePct Cond Salin Type Intens Accum Rate
12/21/2014 07:01 Ice Warning 28.9F 31F 32F 95 1% - 94% 2 mhos 190 Yes - - -
12/21/2014 07:00 Ice Warning 28.9F 31F 32F 95 1% - 94% 2 mhos 186 Yes - - -
12/21/2014 06:51 Ice Warning 28.9F 31F 32F 95 1% - 94% 2 mhos 186 Yes - - -
12/21/2014 06:50 Ice Warning 28.9F 31F 32F 95 1% - 94% 2 mhos 186 Yes - - -
12/21/2014 06:40 Ice Warning 28.8F 31F 32F 95 1% - 94% 2 mhos 183 Yes - - -
12/21/2014 06:32 Ice Warning 28.9F 31F 32F 95 1% - 94% 2 mhos 184 Yes - - -
12/21/2014 06:30 Ice Warning 28.8F 31F 32F 95 1% - 94% 2 mhos 184 Yes - - -
12/21/2014 06:21 Ice Warning 28.8F 31F 32F 95 1% - 94% 2 mhos 179 Yes - - -
12/21/2014 06:20 Ice Warning 28.8F 31F 32F 95 1% - 94% 2 mhos 179 Yes - - -
12/21/2014 06:10 Ice Warning 28.8F 31F 32F 95 1% - 95% 2 mhos 173 Yes - - -
12/21/2014 06:00 Ice Warning 28.8F 31F 32F 95 1% - 95% 2 mhos 172 Yes - - -
12/21/2014 05:51 Ice Warning 28.8F 31F 32F 95 1% - 95% 1 mhos 167 Yes - - -
12/21/2014 05:50 Ice Warning 28.8F 31F 32F 95 1% - 95% 1 mhos 166 Yes - - -
12/21/2014 05:40 Ice Warning 28.8F 31F 32F 95 1% - 95% 1 mhos 166 Yes - - -
12/21/2014 05:31 Ice Warning 28.8F 31F 32F 95 1% - 95% 1 mhos 161 Yes - - -
Date/Time
(MST)
Sf
Temp Chem Water Layer Surface Precipitation
Sf Sub Frz Factor Pct Depth IcePct Cond Salin Type Intens Accum Rate
12/21/2014 05:30 Ice Warning 28.8F 31F 32F 95 1% - 95% 1 mhos 163 Yes - - -
12/21/2014 05:21 Ice Warning 28.8F 31F 32F 95 1% - 95% 1 mhos 147 Yes - - -
12/21/2014 05:20 Ice Warning 28.8F 31F 32F 95 1% - 95% 1 mhos 147 Yes - - -
12/21/2014 05:10 Ice Warning 28.8F 31F 32F 95 1% - 96% 1 mhos 136 Yes - - -
12/21/2014 05:02 Ice Warning 28.8F 31F 32F 95 0% - 96% 1 mhos 126 Yes - - -
12/21/2014 05:00 Ice Warning 28.8F 31F 32F 95 0% - 96% 1 mhos 124 Yes - - -
12/21/2014 04:51 Ice Warning 28.8F 31F 32F 95 0% - 96% 1 mhos 116 Yes - - -
12/21/2014 04:50 Ice Warning 28.8F 31F 32F 95 0% - 96% 1 mhos 115 Yes - - -
12/21/2014 04:40 Ice Warning 28.8F 31F 32F 95 0% - 97% 1 mhos 102 Yes - - -
12/21/2014 04:30 Ice Warning 28.8F 31F 32F 95 0% - 97% 1 mhos 85 Yes - - -
12/21/2014 04:26 Ice Warning 28.8F 31F 32F 95 0% - 98% 1 mhos 79 Yes - - -
12/21/2014 04:20 Ice Warning 28.8F 31F 32F 95 0% - 98% 1 mhos 70 Yes - - -
12/21/2014 04:10 Ice Warning 28.6F 31F 32F 95 0% - 98% 1 mhos 59 Yes - - -
12/21/2014 04:00 Ice Warning 28.6F 31F 32F 95 0% - 98% 0 mhos 54 Yes - - -
12/21/2014 03:52 Ice Warning 28.6F 31F 32F 95 0% - 98% 0 mhos 52 Yes - - -
Date/Time
(MST)
Sf
Temp Chem Water Layer Surface Precipitation
Sf Sub Frz Factor Pct Depth IcePct Cond Salin Type Intens Accum Rate
12/21/2014 03:50 Ice Warning 28.6F 31F 32F 95 0% - 98% 0 mhos 51 Yes - - -
12/21/2014 03:40 Ice Warning 28.6F 31F 32F 95 0% - 99% 0 mhos 50 Yes - - -
12/21/2014 03:30 Ice Warning 28.6F 31F 32F 95 0% - 99% 0 mhos 49 Yes - - -
12/21/2014 03:23 Ice Warning 28.6F 31F 32F 95 0% - 99% 0 mhos 48 Yes - - -
12/21/2014 03:20 Ice Warning 28.6F 31F 32F 95 0% - 99% 0 mhos 48 Yes - - -
12/21/2014 03:10 Ice Warning 28.6F 31F 32F 95 0% - 99% 0 mhos 47 Yes - - -
12/21/2014 03:00 Ice Warning 28.6F 31F 32F 95 0% - 99% 0 mhos 47 Yes - - -
12/21/2014 02:57 Ice Warning 28.6F 30F 32F 95 0% - 99% 0 mhos 47 Yes - - -
12/21/2014 02:50 Ice Warning 28.6F 31F 32F 95 0% - 99% 0 mhos 47 Yes - - -
12/21/2014 02:39 Ice Warning 28.4F 31F 32F 95 0% - 99% 0 mhos 47 Yes - - -
12/21/2014 02:29 Ice Warning 28.4F 30F 32F 95 0% - 99% 0 mhos 47 Yes - - -
12/21/2014 02:19 Ice Warning 28.4F 31F 32F 95 0% - 99% 0 mhos 47 Yes - - -
12/21/2014 02:09 Ice Warning 28.4F 30F 32F 95 0% - 99% 0 mhos 51 Yes - - -
12/21/2014 01:59 Ice Warning 28.4F 30F 32F 95 0% - 99% 0 mhos 53 Yes - - -
12/21/2014 01:49 Ice Warning 28.4F 31F 32F 95 0% - 98% 0 mhos 54 Yes - - -
Date/Time
(MST)
Sf
Temp Chem Water Layer Surface Precipitation
Sf Sub Frz Factor Pct Depth IcePct Cond Salin Type Intens Accum Rate
12/21/2014 01:23 Ice Warning 28.4F 30F 32F 95 0% - 98% 0 mhos 56 Yes - - -
12/21/2014 01:19 Ice Warning 28.4F 30F 32F 95 0% - 98% 0 mhos 56 Yes - - -
12/21/2014 01:09 Ice Warning 28.4F 30F 32F 95 0% - 98% 0 mhos 56 Yes - - -
12/21/2014 00:59 Ice Warning 28.2F 30F 32F 95 0% - 98% 0 mhos 56 Yes - - -
12/21/2014 00:55 Ice Warning 28.2F 30F 32F 95 0% - 98% 1 mhos 56 Yes - - -
12/21/2014 00:49 Ice Warning 28.2F 30F 32F 95 0% - 98% 1 mhos 56 Yes - - -
12/21/2014 00:39 Ice Warning 28.2F 30F 32F 95 0% - 98% 1 mhos 57 Yes - - -
12/21/2014 00:29 Ice Warning 28.2F 30F 32F 95 0% - 98% 1 mhos 57 Yes - - -
12/21/2014 00:22 Ice Warning 28.2F 31F 32F 95 0% - 99% 0 mhos 56 Yes - - -
12/21/2014 00:19 Ice Warning 28.2F 30F 32F 95 0% - 98% 1 mhos 57 Yes - - -
12/21/2014 00:09 Ice Warning 28.2F 30F 32F 95 0% - 98% 1 mhos 58 Yes - - -
12/21/2014 00:06 Ice Warning 28.2F 30F 32F 95 0% - 98% 1 mhos 58 Yes - - -
12/20/2014 23:59 Ice Warning 28.2F 30F 32F 95 0% - 98% 1 mhos 59 Yes - - -
12/20/2014 23:49 Ice Warning 28.0F 30F 32F 95 0% - 98% 1 mhos 61 Yes - - -
12/20/2014 23:39 Ice Warning 28.0F 30F 32F 95 0% - 98% 1 mhos 62 Yes - - -
Date/Time
(MST)
Sf
Temp Chem Water Layer Surface Precipitation
Sf Sub Frz Factor Pct Depth IcePct Cond Salin Type Intens Accum Rate
12/20/2014 23:29 Ice Warning 28.0F 30F 32F 95 0% - 98% 1 mhos 61 Yes - - -
12/20/2014 23:27 Ice Warning 28.0F 30F 32F 95 0% - 98% 1 mhos 61 Yes - - -
12/20/2014 23:19 Ice Warning 28.0F 30F 32F 95 0% - 98% 1 mhos 62 Yes - - -
12/20/2014 23:09 Ice Warning 28.0F 30F 32F 95 0% - 98% 1 mhos 62 Yes - - -
12/20/2014 22:59 Ice Warning 28.0F 30F 32F 95 0% - 98% 1 mhos 62 Yes - - -
12/20/2014 22:57 Ice Warning 28.0F 30F 32F 95 0% - 98% 1 mhos 61 Yes - - -
12/20/2014 22:49 Ice Warning 28.0F 30F 32F 95 0% - 98% 1 mhos 62 Yes - - -
12/20/2014 22:39 Ice Warning 28.0F 30F 32F 95 0% - 98% 1 mhos 63 Yes - - -
12/20/2014 22:30 Ice Warning 28.0F 30F 32F 95 0% - 98% 1 mhos 69 Yes - - -
12/20/2014 22:29 Ice Warning 28.0F 30F 32F 95 0% - 98% 1 mhos 69 Yes - - -
12/20/2014 22:19 Ice Warning 28.0F 30F 32F 95 0% - 98% 1 mhos 68 Yes - - -
12/20/2014 22:09 Ice Warning 28.0F 30F 32F 95 0% - 98% 1 mhos 67 Yes - - -
12/20/2014 22:00 Ice Warning 28.0F 30F 32F 95 0% - 98% 1 mhos 67 Yes - - -
12/20/2014 21:59 Ice Warning 28.0F 30F 32F 95 0% - 98% 1 mhos 67 Yes - - -
Change End Date:
Copyright © 1998-2005 Surface Systems, Inc.
All Rights Reserved
Send comments about the data to:
SCAN Web ® is a registered trademark of Surface Systems, Inc.
SCAN Web Version 5.6